createdAt,value
2023-01-21T00:00:33.262Z,93.33
2023-01-21T00:02:50.507Z,92.91
2023-01-21T00:05:07.471Z,93.19
2023-01-21T00:07:24.531Z,93.33
2023-01-21T00:09:41.872Z,92.82
2023-01-21T00:11:59.215Z,93.03
2023-01-21T00:14:17.327Z,93.50
2023-01-21T00:16:34.567Z,93.38
2023-01-21T00:18:51.554Z,92.78
2023-01-21T00:21:08.623Z,93.18
2023-01-21T00:23:25.717Z,93.19
2023-01-21T00:25:43.133Z,93.43
2023-01-21T00:28:00.400Z,93.51
2023-01-21T00:30:17.927Z,93.48
2023-01-21T00:32:35.219Z,93.25
2023-01-21T00:34:52.288Z,93.45
2023-01-21T00:37:09.422Z,93.34
2023-01-21T00:39:26.380Z,92.77
2023-01-21T00:41:43.698Z,93.48
2023-01-21T00:44:00.826Z,93.28
2023-01-21T00:46:18.196Z,93.22
2023-01-21T00:48:35.617Z,92.98
2023-01-21T00:50:52.934Z,93.20
2023-01-21T00:53:11.266Z,93.13
2023-01-21T00:55:28.610Z,93.15
2023-01-21T00:57:45.976Z,92.99
2023-01-21T01:00:03.886Z,92.99
2023-01-21T01:02:20.934Z,92.48
2023-01-21T01:04:38.054Z,92.56
2023-01-21T01:06:54.999Z,91.51
2023-01-21T01:09:12.708Z,91.22
2023-01-21T01:11:29.646Z,91.07
2023-01-21T01:13:46.797Z,91.59
2023-01-21T01:16:04.845Z,91.74
2023-01-21T01:18:23.231Z,91.83
2023-01-21T01:20:40.684Z,92.24
2023-01-21T01:22:58.745Z,92.45
2023-01-21T01:25:16.181Z,92.28
2023-01-21T01:27:34.162Z,92.59
2023-01-21T01:29:51.338Z,92.43
2023-01-21T01:32:08.368Z,92.54
2023-01-21T01:34:26.721Z,92.31
2023-01-21T01:36:43.776Z,91.94
2023-01-21T01:39:01.329Z,91.90
2023-01-21T01:41:18.608Z,92.19
2023-01-21T01:43:36.856Z,92.01
2023-01-21T01:45:54.116Z,92.17
2023-01-21T01:48:12.451Z,91.70
2023-01-21T01:50:29.506Z,92.18
2023-01-21T01:52:46.568Z,91.75
2023-01-21T01:55:03.554Z,92.20
2023-01-21T01:57:20.618Z,92.16
2023-01-21T01:59:37.546Z,92.25
2023-01-21T02:01:54.931Z,92.56
2023-01-21T02:04:12.042Z,92.01
2023-01-21T02:06:29.014Z,91.88
2023-01-21T02:08:46.273Z,91.97
2023-01-21T02:11:03.369Z,92.01
2023-01-21T02:13:21.317Z,91.77
2023-01-21T02:15:38.294Z,92.20
2023-01-21T02:17:56.364Z,91.89
2023-01-21T02:20:13.840Z,91.84
2023-01-21T02:22:31.031Z,92.49
2023-01-21T02:24:48.115Z,90.92
2023-01-21T02:27:05.124Z,90.99
2023-01-21T02:29:22.433Z,91.53
2023-01-21T02:31:39.548Z,91.60
2023-01-21T02:33:56.846Z,91.70
2023-01-21T02:36:13.971Z,91.43
2023-01-21T02:38:31.249Z,91.37
2023-01-21T02:40:48.524Z,91.37
2023-01-21T02:43:05.607Z,91.77
2023-01-21T02:45:22.606Z,91.77
2023-01-21T02:47:39.562Z,91.62
2023-01-21T02:49:59.584Z,91.91
2023-01-21T02:52:16.827Z,92.12
2023-01-21T02:54:33.808Z,92.00
2023-01-21T02:56:50.996Z,92.09
2023-01-21T02:59:08.959Z,91.88
2023-01-21T03:01:25.881Z,92.21
2023-01-21T03:03:44.263Z,92.68
2023-01-21T03:06:01.338Z,92.33
2023-01-21T03:08:18.574Z,92.14
2023-01-21T03:10:35.574Z,92.38
2023-01-21T03:12:52.606Z,92.39
2023-01-21T03:15:09.719Z,92.65
2023-01-21T03:17:26.960Z,92.08
2023-01-21T03:19:44.042Z,92.08
2023-01-21T03:22:02.941Z,92.09
2023-01-21T03:24:20.291Z,92.19
2023-01-21T03:26:37.151Z,91.90
2023-01-21T03:28:54.102Z,91.99
2023-01-21T03:31:11.306Z,92.40
2023-01-21T03:33:28.310Z,92.28
2023-01-21T03:35:45.202Z,91.87
2023-01-21T03:38:02.088Z,91.51
2023-01-21T03:40:21.947Z,91.99
2023-01-21T03:42:41.915Z,92.18
2023-01-21T03:45:00.275Z,91.87
2023-01-21T03:47:17.125Z,91.36
2023-01-21T03:49:34.053Z,91.89
2023-01-21T03:51:51.370Z,91.49
2023-01-21T03:54:08.364Z,91.85
2023-01-21T03:56:26.646Z,91.99
2023-01-21T03:58:45.646Z,91.45
2023-01-21T04:01:02.728Z,91.46
2023-01-21T04:03:19.964Z,91.26
2023-01-21T04:05:37.058Z,91.69
2023-01-21T04:07:54.364Z,91.03
2023-01-21T04:10:11.290Z,91.10
2023-01-21T04:12:28.229Z,91.03
2023-01-21T04:14:45.574Z,91.26
2023-01-21T04:17:02.861Z,91.27
2023-01-21T04:19:20.208Z,91.65
2023-01-21T04:21:37.227Z,91.61
2023-01-21T04:23:54.340Z,91.99
2023-01-21T04:26:11.710Z,91.36
2023-01-21T04:28:28.809Z,91.26
2023-01-21T04:30:45.908Z,90.87
2023-01-21T04:33:02.977Z,90.83
2023-01-21T04:35:19.919Z,90.32
2023-01-21T04:37:37.041Z,90.47
2023-01-21T04:39:54.008Z,90.74
2023-01-21T04:42:11.007Z,90.37
2023-01-21T04:44:27.996Z,90.13
2023-01-21T04:46:45.223Z,90.15
2023-01-21T04:49:02.243Z,90.20
2023-01-21T04:51:19.298Z,90.14
2023-01-21T04:53:36.249Z,90.24
2023-01-21T04:55:53.342Z,90.20
2023-01-21T04:58:10.394Z,89.96
2023-01-21T05:00:27.385Z,90.18
2023-01-21T05:02:44.576Z,90.12
2023-01-21T05:05:01.814Z,90.33
2023-01-21T05:07:21.556Z,90.05
2023-01-21T05:09:39.014Z,90.74
2023-01-21T05:11:56.017Z,90.37
2023-01-21T05:14:13.066Z,90.94
2023-01-21T05:16:30.440Z,90.88
2023-01-21T05:18:47.491Z,90.91
2023-01-21T05:21:04.457Z,90.84
2023-01-21T05:23:21.518Z,90.99
2023-01-21T05:25:38.535Z,90.79
2023-01-21T05:27:55.775Z,90.99
2023-01-21T05:30:12.785Z,90.86
2023-01-21T05:32:30.949Z,90.40
2023-01-21T05:34:48.333Z,90.25
2023-01-21T05:37:05.400Z,89.68
2023-01-21T05:39:22.352Z,88.82
2023-01-21T05:41:39.615Z,89.33
2023-01-21T05:43:56.539Z,89.27
2023-01-21T05:46:13.479Z,88.84
2023-01-21T05:48:30.786Z,87.93
2023-01-21T05:50:47.942Z,87.71
2023-01-21T05:53:05.040Z,87.39
2023-01-21T05:55:22.086Z,86.98
2023-01-21T05:57:39.117Z,86.75
2023-01-21T05:59:56.397Z,85.54
2023-01-21T06:02:13.694Z,85.91
2023-01-21T06:04:30.945Z,86.04
2023-01-21T06:06:48.268Z,85.73
2023-01-21T06:09:05.354Z,85.99
2023-01-21T06:11:23.389Z,85.56
2023-01-21T06:13:40.727Z,85.82
2023-01-21T06:15:57.796Z,86.33
2023-01-21T06:18:14.856Z,86.41
2023-01-21T06:20:32.137Z,86.25
2023-01-21T06:22:49.035Z,86.35
2023-01-21T06:25:06.308Z,87.00
2023-01-21T06:27:23.341Z,87.32
2023-01-21T06:29:40.602Z,86.18
2023-01-21T06:31:57.804Z,86.16
2023-01-21T06:34:14.844Z,86.02
2023-01-21T06:36:32.130Z,86.21
2023-01-21T06:38:49.315Z,86.20
2023-01-21T06:41:06.349Z,85.96
2023-01-21T06:43:24.347Z,85.94
2023-01-21T06:45:41.725Z,85.99
2023-01-21T06:47:58.792Z,85.91
2023-01-21T06:50:16.082Z,85.91
2023-01-21T06:52:33.305Z,85.61
2023-01-21T06:54:50.562Z,85.01
2023-01-21T06:57:07.498Z,85.56
2023-01-21T06:59:24.486Z,85.06
2023-01-21T07:01:41.860Z,84.79
2023-01-21T07:03:58.849Z,85.44
2023-01-21T07:06:15.755Z,85.37
2023-01-21T07:08:32.812Z,84.66
2023-01-21T07:10:49.849Z,85.81
2023-01-21T07:13:07.153Z,85.53
2023-01-21T07:15:24.128Z,85.65
2023-01-21T07:17:41.197Z,85.16
2023-01-21T07:19:58.166Z,84.24
2023-01-21T07:22:15.066Z,84.70
2023-01-21T07:24:32.359Z,84.77
2023-01-21T07:26:49.617Z,83.83
2023-01-21T07:29:06.819Z,84.19
2023-01-21T07:31:23.921Z,84.69
2023-01-21T07:33:41.181Z,84.38
2023-01-21T07:35:58.141Z,84.95
2023-01-21T07:38:15.604Z,84.84
2023-01-21T07:40:32.885Z,84.74
2023-01-21T07:42:49.814Z,84.75
2023-01-21T07:45:07.077Z,84.67
2023-01-21T07:47:23.987Z,84.07
2023-01-21T07:49:41.356Z,83.35
2023-01-21T07:51:58.691Z,84.14
2023-01-21T07:54:15.711Z,83.79
2023-01-21T07:56:32.772Z,84.09
2023-01-21T07:58:49.728Z,83.22
2023-01-21T08:01:07.006Z,83.82
2023-01-21T08:03:24.036Z,83.81
2023-01-21T08:05:41.078Z,84.20
2023-01-21T08:07:58.118Z,83.65
2023-01-21T08:10:16.015Z,83.88
2023-01-21T08:12:32.956Z,83.92
2023-01-21T08:14:50.015Z,84.04
2023-01-21T08:17:07.054Z,83.75
2023-01-21T08:19:24.281Z,83.71
2023-01-21T08:21:41.318Z,82.78
2023-01-21T08:23:58.655Z,82.44
2023-01-21T08:26:15.689Z,82.59
2023-01-21T08:28:32.684Z,83.91
2023-01-21T08:30:50.015Z,83.36
2023-01-21T08:33:07.145Z,83.79
2023-01-21T08:35:24.429Z,83.66
2023-01-21T08:37:41.367Z,84.68
2023-01-21T08:39:58.613Z,84.37
2023-01-21T08:42:15.650Z,85.07
2023-01-21T08:44:33.576Z,84.81
2023-01-21T08:46:50.554Z,85.18
2023-01-21T08:49:07.879Z,85.85
2023-01-21T08:51:24.835Z,85.18
2023-01-21T08:53:42.952Z,84.52
2023-01-21T08:55:59.966Z,84.38
2023-01-21T08:58:17.027Z,84.23
2023-01-21T09:00:35.034Z,84.44
2023-01-21T09:02:52.116Z,85.62
2023-01-21T09:05:09.658Z,84.96
2023-01-21T09:07:27.830Z,84.49
2023-01-21T09:09:45.012Z,84.51
2023-01-21T09:12:02.339Z,85.15
2023-01-21T09:14:19.366Z,84.42
2023-01-21T09:16:36.768Z,84.20
2023-01-21T09:18:53.619Z,83.91
2023-01-21T09:21:10.607Z,84.71
2023-01-21T09:23:27.620Z,84.52
2023-01-21T09:25:44.906Z,84.24
2023-01-21T09:28:02.173Z,83.95
2023-01-21T09:30:20.595Z,84.67
2023-01-21T09:32:38.835Z,85.42
2023-01-21T09:34:56.071Z,84.72
2023-01-21T09:37:13.353Z,85.25
2023-01-21T09:39:30.647Z,84.61
2023-01-21T09:41:47.708Z,85.25
2023-01-21T09:44:04.746Z,85.20
2023-01-21T09:46:21.977Z,85.19
2023-01-21T09:48:39.056Z,84.98
2023-01-21T09:50:56.355Z,84.44
2023-01-21T09:53:13.623Z,84.50
2023-01-21T09:55:30.846Z,85.14
2023-01-21T09:57:47.946Z,84.62
2023-01-21T10:00:04.910Z,85.07
2023-01-21T10:02:22.228Z,84.80
2023-01-21T10:04:39.333Z,85.26
2023-01-21T10:06:56.757Z,84.58
2023-01-21T10:09:14.632Z,84.84
2023-01-21T10:11:31.622Z,84.75
2023-01-21T10:13:48.986Z,84.50
2023-01-21T10:16:06.554Z,84.63
2023-01-21T10:18:23.654Z,84.59
2023-01-21T10:20:40.946Z,84.31
2023-01-21T10:22:58.197Z,83.87
2023-01-21T10:25:15.695Z,83.49
2023-01-21T10:27:34.014Z,83.34
2023-01-21T10:29:51.411Z,82.24
2023-01-21T10:32:08.695Z,82.01
2023-01-21T10:34:26.757Z,82.02
2023-01-21T10:36:43.867Z,80.61
2023-01-21T10:39:01.028Z,80.99
2023-01-21T10:41:18.276Z,82.01
2023-01-21T10:43:36.433Z,80.57
2023-01-21T10:45:53.532Z,80.49
2023-01-21T10:48:11.772Z,81.06
2023-01-21T10:50:28.838Z,81.62
2023-01-21T10:52:46.129Z,81.74
2023-01-21T10:55:03.385Z,80.01
2023-01-21T10:57:20.464Z,80.67
2023-01-21T10:59:37.560Z,80.62
2023-01-21T11:01:54.977Z,81.32
2023-01-21T11:04:12.070Z,81.27
2023-01-21T11:06:30.123Z,80.88
2023-01-21T11:08:47.103Z,80.71
2023-01-21T11:11:05.517Z,80.78
2023-01-21T11:13:22.763Z,81.15
2023-01-21T11:15:40.133Z,80.60
2023-01-21T11:17:57.075Z,81.36
2023-01-21T11:20:15.383Z,81.63
2023-01-21T11:22:32.775Z,81.36
2023-01-21T11:24:50.820Z,79.46
2023-01-21T11:27:07.866Z,79.20
2023-01-21T11:29:25.996Z,79.08
2023-01-21T11:31:43.240Z,79.02
2023-01-21T11:34:00.719Z,79.63
2023-01-21T11:36:17.660Z,80.02
2023-01-21T11:38:35.154Z,78.45
2023-01-21T11:40:52.284Z,79.14
2023-01-21T11:43:09.620Z,77.98
2023-01-21T11:45:27.988Z,78.78
2023-01-21T11:47:45.467Z,78.43
2023-01-21T11:50:02.478Z,78.78
2023-01-21T11:52:19.841Z,78.65
2023-01-21T11:54:37.153Z,77.66
2023-01-21T11:56:54.460Z,78.02
2023-01-21T11:59:11.618Z,77.35
2023-01-21T12:01:28.941Z,77.64
2023-01-21T12:03:46.282Z,78.16
2023-01-21T12:06:03.436Z,77.82
2023-01-21T12:08:20.562Z,78.30
2023-01-21T12:10:37.806Z,76.57
2023-01-21T12:12:54.862Z,77.25
2023-01-21T12:15:12.212Z,76.42
2023-01-21T12:17:29.323Z,77.26
2023-01-21T12:19:46.302Z,77.71
2023-01-21T12:22:03.455Z,77.78
2023-01-21T12:24:20.405Z,77.91
2023-01-21T12:26:37.402Z,77.60
2023-01-21T12:28:54.601Z,77.42
2023-01-21T12:31:12.125Z,77.82
2023-01-21T12:33:30.219Z,77.47
2023-01-21T12:35:47.200Z,78.00
2023-01-21T12:38:04.552Z,78.30
2023-01-21T12:40:21.778Z,77.86
2023-01-21T12:42:39.030Z,77.90
2023-01-21T12:44:56.327Z,76.77
2023-01-21T12:47:13.382Z,77.71
2023-01-21T12:49:30.836Z,78.23
2023-01-21T12:51:47.925Z,78.77
2023-01-21T12:54:04.962Z,78.39
2023-01-21T12:56:22.017Z,78.28
2023-01-21T12:58:39.125Z,78.25
2023-01-21T13:00:56.165Z,78.27
2023-01-21T13:03:13.324Z,78.45
2023-01-21T13:05:30.298Z,78.55
2023-01-21T13:07:47.375Z,78.43
2023-01-21T13:10:04.452Z,79.38
2023-01-21T13:12:21.524Z,78.95
2023-01-21T13:14:39.548Z,78.65
2023-01-21T13:16:56.592Z,79.07
2023-01-21T13:19:13.740Z,78.28
2023-01-21T13:21:30.781Z,78.67
2023-01-21T13:23:47.787Z,78.70
2023-01-21T13:26:04.853Z,78.94
2023-01-21T13:28:22.784Z,78.74
2023-01-21T13:30:39.853Z,79.04
2023-01-21T13:32:56.947Z,78.64
2023-01-21T13:35:14.413Z,79.48
2023-01-21T13:37:31.623Z,79.17
2023-01-21T13:39:48.729Z,79.06
2023-01-21T13:42:06.767Z,78.64
2023-01-21T13:44:23.737Z,79.18
2023-01-21T13:46:41.037Z,79.01
2023-01-21T13:48:58.170Z,78.66
2023-01-21T13:51:15.562Z,79.21
2023-01-21T13:53:33.554Z,78.56
2023-01-21T13:55:50.937Z,78.52
2023-01-21T13:58:08.047Z,79.03
2023-01-21T14:00:26.168Z,79.16
2023-01-21T14:02:43.130Z,79.17
2023-01-21T14:05:00.255Z,78.81
2023-01-21T14:07:18.366Z,79.43
2023-01-21T14:09:38.376Z,79.74
2023-01-21T14:11:55.795Z,79.69
2023-01-21T14:14:12.954Z,79.54
2023-01-21T14:16:30.360Z,79.48
2023-01-21T14:18:47.748Z,79.68
2023-01-21T14:21:05.016Z,80.56
2023-01-21T14:23:23.416Z,80.39
2023-01-21T14:25:40.431Z,80.15
2023-01-21T14:27:57.537Z,80.53
2023-01-21T14:30:14.685Z,79.68
2023-01-21T14:32:32.149Z,80.53
2023-01-21T14:34:49.333Z,80.17
2023-01-21T14:37:06.257Z,80.36
2023-01-21T14:39:23.281Z,80.56
2023-01-21T14:41:40.679Z,80.25
2023-01-21T14:43:57.647Z,80.75
2023-01-21T14:46:14.974Z,80.90
2023-01-21T14:48:32.266Z,80.67
2023-01-21T14:50:50.574Z,81.01
2023-01-21T14:53:07.762Z,80.66
2023-01-21T14:55:24.999Z,80.26
2023-01-21T14:57:44.732Z,81.14
2023-01-21T15:00:04.839Z,80.97
2023-01-21T15:02:21.998Z,81.18
2023-01-21T15:04:38.925Z,80.93
2023-01-21T15:06:56.804Z,80.38
2023-01-21T15:09:13.789Z,80.65
2023-01-21T15:11:31.918Z,80.80
2023-01-21T15:13:49.753Z,81.35
2023-01-21T15:16:06.897Z,81.52
2023-01-21T15:18:24.086Z,81.27
2023-01-21T15:20:42.111Z,81.27
2023-01-21T15:22:59.677Z,80.96
2023-01-21T15:25:18.162Z,80.83
2023-01-21T15:27:35.374Z,80.83
2023-01-21T15:29:52.346Z,81.05
2023-01-21T15:32:09.469Z,81.52
2023-01-21T15:34:26.881Z,81.25
2023-01-21T15:36:44.027Z,81.88
2023-01-21T15:39:02.275Z,81.83
2023-01-21T15:41:19.758Z,81.93
2023-01-21T15:43:37.105Z,81.51
2023-01-21T15:45:54.577Z,81.80
2023-01-21T15:48:11.717Z,81.99
2023-01-21T15:50:28.737Z,81.54
2023-01-21T15:52:46.647Z,81.61
2023-01-21T15:55:03.793Z,81.87
2023-01-21T15:57:20.836Z,82.28
2023-01-21T15:59:37.840Z,82.83
2023-01-21T16:01:59.014Z,82.80
2023-01-21T16:04:16.122Z,82.50
2023-01-21T16:06:33.116Z,82.62
2023-01-21T16:08:50.161Z,82.19
2023-01-21T16:11:08.452Z,82.43
2023-01-21T16:13:25.736Z,82.91
2023-01-21T16:15:43.994Z,82.18
2023-01-21T16:18:01.124Z,82.18
2023-01-21T16:20:18.213Z,82.25
2023-01-21T16:22:35.395Z,81.69
2023-01-21T16:24:53.396Z,82.39
2023-01-21T16:27:10.413Z,82.97
2023-01-21T16:29:27.393Z,82.56
2023-01-21T16:31:45.310Z,83.33
2023-01-21T16:34:03.258Z,83.58
2023-01-21T16:36:20.696Z,82.93
2023-01-21T16:38:37.790Z,82.67
2023-01-21T16:40:54.724Z,82.66
2023-01-21T16:43:11.824Z,83.06
2023-01-21T16:45:31.514Z,83.17
2023-01-21T16:47:48.500Z,83.47
2023-01-21T16:50:05.795Z,83.58
2023-01-21T16:52:22.903Z,83.27
2023-01-21T16:54:40.038Z,83.41
2023-01-21T16:56:57.050Z,83.08
2023-01-21T16:59:15.163Z,83.09
2023-01-21T17:01:32.481Z,83.64
2023-01-21T17:03:50.536Z,82.79
2023-01-21T17:06:07.906Z,82.97
2023-01-21T17:08:25.874Z,82.56
2023-01-21T17:10:43.154Z,82.77
2023-01-21T17:13:00.445Z,83.05
2023-01-21T17:15:17.817Z,83.11
2023-01-21T17:17:35.491Z,83.07
2023-01-21T17:19:55.104Z,83.17
2023-01-21T17:22:13.401Z,83.60
2023-01-21T17:24:30.544Z,83.41
2023-01-21T17:26:52.154Z,83.70
2023-01-21T17:29:09.521Z,84.02
2023-01-21T17:31:26.914Z,84.00
2023-01-21T17:33:44.302Z,83.82
2023-01-21T17:36:01.478Z,84.08
2023-01-21T17:38:19.839Z,84.68
2023-01-21T17:40:38.440Z,84.63
2023-01-21T17:42:55.508Z,85.16
2023-01-21T17:45:12.629Z,84.44
2023-01-21T17:47:29.990Z,83.87
2023-01-21T17:49:48.129Z,83.78
2023-01-21T17:52:05.417Z,84.41
2023-01-21T17:54:23.375Z,84.14
2023-01-21T17:56:40.332Z,84.74
2023-01-21T17:58:57.424Z,84.82
2023-01-21T18:01:15.795Z,85.35
2023-01-21T18:03:33.313Z,85.50
2023-01-21T18:05:51.706Z,85.45
2023-01-21T18:08:08.781Z,85.66
2023-01-21T18:10:25.889Z,85.45
2023-01-21T18:12:43.227Z,85.50
2023-01-21T18:15:00.195Z,86.00
2023-01-21T18:17:17.395Z,85.66
2023-01-21T18:19:34.393Z,85.51
2023-01-21T18:21:51.573Z,84.71
2023-01-21T18:24:09.598Z,85.15
2023-01-21T18:26:29.857Z,85.34
2023-01-21T18:28:46.838Z,84.93
2023-01-21T18:31:04.347Z,84.97
2023-01-21T18:33:21.697Z,84.59
2023-01-21T18:35:39.748Z,84.74
2023-01-21T18:37:56.849Z,84.99
2023-01-21T18:40:14.229Z,85.27
2023-01-21T18:42:31.247Z,85.08
2023-01-21T18:44:48.180Z,85.15
2023-01-21T18:47:05.189Z,85.68
2023-01-21T18:49:23.146Z,85.36
2023-01-21T18:51:40.461Z,85.72
2023-01-21T18:53:57.885Z,86.29
2023-01-21T18:56:15.384Z,86.13
2023-01-21T18:58:35.418Z,85.80
2023-01-21T19:00:52.370Z,86.12
2023-01-21T19:03:09.482Z,86.31
2023-01-21T19:05:26.515Z,86.22
2023-01-21T19:07:43.539Z,85.83
2023-01-21T19:10:01.509Z,86.86
2023-01-21T19:12:18.450Z,86.24
2023-01-21T19:14:35.510Z,86.42
2023-01-21T19:16:52.843Z,85.77
2023-01-21T19:19:09.910Z,86.09
2023-01-21T19:21:26.832Z,85.79
2023-01-21T19:23:43.890Z,85.71
2023-01-21T19:26:01.199Z,85.72
2023-01-21T19:28:18.231Z,86.30
2023-01-21T19:30:36.471Z,86.22
2023-01-21T19:32:53.564Z,86.68
2023-01-21T19:35:10.643Z,86.30
2023-01-21T19:37:27.733Z,86.74
2023-01-21T19:39:46.010Z,86.74
2023-01-21T19:42:08.264Z,86.39
2023-01-21T19:44:25.933Z,86.92
2023-01-21T19:46:43.337Z,86.86
2023-01-21T19:49:00.650Z,87.41
2023-01-21T19:51:17.662Z,87.58
2023-01-21T19:53:34.763Z,87.82
2023-01-21T19:55:52.102Z,87.88
2023-01-21T19:58:09.123Z,87.10
2023-01-21T20:00:26.162Z,87.06
2023-01-21T20:02:43.424Z,87.07
2023-01-21T20:05:00.504Z,87.47
2023-01-21T20:07:17.563Z,86.85
2023-01-21T20:09:34.635Z,86.19
2023-01-21T20:11:51.752Z,84.31
2023-01-21T20:14:08.944Z,84.25
2023-01-21T20:16:26.405Z,83.89
2023-01-21T20:18:44.365Z,83.37
2023-01-21T20:21:01.588Z,83.63
2023-01-21T20:23:18.724Z,83.47
2023-01-21T20:25:35.783Z,83.45
2023-01-21T20:27:52.831Z,83.37
2023-01-21T20:30:15.915Z,83.46
2023-01-21T20:32:33.363Z,83.17
2023-01-21T20:34:50.658Z,83.49
2023-01-21T20:37:09.015Z,83.70
2023-01-21T20:39:26.023Z,83.33
2023-01-21T20:41:43.350Z,83.75
2023-01-21T20:44:00.436Z,84.01
2023-01-21T20:46:18.662Z,84.35
2023-01-21T20:48:35.849Z,84.37
2023-01-21T20:50:54.306Z,84.43
2023-01-21T20:53:12.269Z,84.29
2023-01-21T20:55:30.209Z,83.51
2023-01-21T20:57:47.280Z,83.71
2023-01-21T21:00:05.590Z,83.37
2023-01-21T21:02:22.590Z,83.57
2023-01-21T21:04:39.732Z,83.80
2023-01-21T21:06:56.873Z,84.35
2023-01-21T21:09:13.946Z,84.01
2023-01-21T21:11:31.356Z,83.85
2023-01-21T21:13:49.334Z,84.08
2023-01-21T21:16:07.689Z,84.11
2023-01-21T21:18:24.709Z,85.00
2023-01-21T21:20:42.022Z,85.12
2023-01-21T21:22:59.138Z,85.46
2023-01-21T21:25:17.597Z,85.85
2023-01-21T21:27:35.061Z,85.96
2023-01-21T21:29:52.977Z,85.97
2023-01-21T21:32:12.215Z,86.23
2023-01-21T21:34:29.511Z,86.35
2023-01-21T21:36:47.854Z,86.48
2023-01-21T21:39:04.914Z,86.75
2023-01-21T21:41:22.237Z,87.05
2023-01-21T21:43:40.985Z,86.94
2023-01-21T21:45:58.129Z,86.60
2023-01-21T21:48:16.103Z,85.96
2023-01-21T21:50:33.262Z,86.20
2023-01-21T21:52:51.748Z,86.40
2023-01-21T21:55:08.997Z,86.12
2023-01-21T21:57:26.345Z,86.38
2023-01-21T21:59:44.347Z,86.57
2023-01-21T22:02:01.539Z,86.87
2023-01-21T22:04:18.889Z,86.42
2023-01-21T22:06:35.942Z,86.36
2023-01-21T22:08:53.053Z,86.52
2023-01-21T22:11:10.491Z,86.29
2023-01-21T22:13:27.569Z,86.17
2023-01-21T22:15:44.884Z,86.18
2023-01-21T22:18:02.068Z,86.00
2023-01-21T22:20:20.432Z,85.22
2023-01-21T22:22:37.772Z,85.37
2023-01-21T22:24:54.943Z,85.07
2023-01-21T22:27:13.243Z,85.07
2023-01-21T22:29:30.577Z,85.54
2023-01-21T22:31:47.770Z,85.92
2023-01-21T22:34:05.741Z,86.07
2023-01-21T22:36:22.789Z,85.69
2023-01-21T22:38:40.838Z,85.66
2023-01-21T22:40:58.245Z,85.34
2023-01-21T22:43:15.600Z,85.72
2023-01-21T22:45:32.873Z,86.19
2023-01-21T22:47:51.001Z,85.68
2023-01-21T22:50:08.651Z,85.99
2023-01-21T22:52:26.664Z,85.37
2023-01-21T22:54:43.708Z,85.30
2023-01-21T22:57:02.126Z,85.85
2023-01-21T22:59:19.263Z,85.20
2023-01-21T23:01:36.775Z,85.53
2023-01-21T23:03:54.924Z,85.52
2023-01-21T23:06:12.001Z,85.97
2023-01-21T23:08:29.983Z,85.82
2023-01-21T23:10:46.930Z,86.08
2023-01-21T23:13:03.920Z,85.80
2023-01-21T23:15:21.045Z,85.84
2023-01-21T23:17:38.345Z,85.83
2023-01-21T23:19:56.734Z,86.19
2023-01-21T23:22:14.012Z,85.88
2023-01-21T23:24:31.352Z,85.73
2023-01-21T23:26:48.450Z,85.42
2023-01-21T23:29:06.713Z,85.61
2023-01-21T23:31:24.075Z,85.36
2023-01-21T23:33:41.636Z,85.88
2023-01-21T23:35:59.464Z,85.68
2023-01-21T23:38:16.472Z,85.75
2023-01-21T23:40:33.725Z,85.96
2023-01-21T23:42:50.805Z,86.03
2023-01-21T23:45:09.113Z,86.27
2023-01-21T23:47:26.483Z,86.55
2023-01-21T23:49:43.622Z,86.44
2023-01-21T23:52:01.091Z,86.61
2023-01-21T23:54:18.021Z,86.52
2023-01-21T23:56:37.854Z,86.90
2023-01-21T23:58:55.250Z,87.53
